createdAt,value
2023-05-12T00:03:48.061Z,16.7
2023-05-12T00:10:07.932Z,16.7
2023-05-12T00:16:31.039Z,27
2023-05-12T00:22:50.964Z,27
2023-05-12T00:29:13.969Z,12.9
2023-05-12T00:35:33.962Z,12.9
2023-05-12T00:41:56.951Z,21.9
2023-05-12T00:48:16.914Z,21.9
2023-05-12T00:54:40.007Z,24.8
2023-05-12T01:00:59.978Z,24.8
2023-05-12T01:07:23.023Z,11.3
2023-05-12T01:13:43.016Z,11.3
2023-05-12T01:20:05.972Z,19.8
2023-05-12T01:26:25.934Z,19.8
2023-05-12T01:32:49.036Z,18.2
2023-05-12T01:39:08.948Z,18.2
2023-05-12T01:45:31.940Z,19.3
2023-05-12T01:51:51.953Z,19.3
2023-05-12T01:58:14.977Z,17.9
2023-05-12T02:04:34.936Z,17.9
2023-05-12T02:10:57.933Z,11.6
2023-05-12T02:17:17.919Z,11.6
2023-05-12T02:23:40.904Z,22.8
2023-05-12T02:30:00.972Z,22.8
2023-05-12T02:36:23.986Z,24.8
2023-05-12T02:42:43.904Z,24.8
2023-05-12T02:49:07.019Z,31.8
2023-05-12T02:55:26.911Z,31.8
2023-05-12T03:01:49.956Z,17.9
2023-05-12T03:08:10.033Z,17.9
2023-05-12T03:14:32.903Z,15.6
2023-05-12T03:20:52.970Z,15.6
2023-05-12T03:27:16.014Z,8.3
2023-05-12T03:51:40.450Z,8.5
2023-05-12T03:57:59.901Z,8.5
2023-05-12T04:04:22.985Z,8.5
2023-05-12T04:10:42.932Z,8.5
2023-05-12T04:17:05.979Z,5
2023-05-12T04:23:25.936Z,5
2023-05-12T04:29:48.949Z,3
2023-05-12T04:36:08.975Z,3
2023-05-12T04:42:31.921Z,1.5
2023-05-12T04:48:51.977Z,1.5
2023-05-12T04:55:14.960Z,1
2023-05-12T05:01:34.993Z,1
2023-05-12T05:07:57.988Z,3.2
2023-05-12T05:14:18.022Z,3.2
2023-05-12T05:20:45.116Z,1.6
2023-05-12T05:27:01.006Z,1.6
2023-05-12T05:33:23.929Z,3.7
2023-05-12T05:39:43.990Z,3.7
2023-05-12T05:46:06.984Z,37
2023-05-12T05:52:26.970Z,37
2023-05-12T05:58:49.910Z,2.3
2023-05-12T06:05:09.950Z,2.3
2023-05-12T06:11:33.008Z,1.7
2023-05-12T06:17:52.919Z,1.7
2023-05-12T06:24:15.983Z,0.9
2023-05-12T06:30:35.914Z,0.9
2023-05-12T06:36:58.917Z,3
2023-05-12T06:43:18.978Z,3
2023-05-12T06:49:41.925Z,1.1
2023-05-12T06:56:01.979Z,1.1
2023-05-12T07:02:25.009Z,1.6
2023-05-12T07:08:44.909Z,1.6
2023-05-12T07:15:07.964Z,1.3
2023-05-12T07:21:27.983Z,1.3
2023-05-12T07:27:51.001Z,1
2023-05-12T07:34:10.905Z,1
2023-05-12T07:40:33.953Z,2
2023-05-12T07:46:54.001Z,2
2023-05-12T07:53:16.893Z,2.5
2023-05-12T07:59:36.989Z,2.5
2023-05-12T08:06:00.163Z,1.4
2023-05-12T08:12:19.936Z,1.4
2023-05-12T08:18:43.116Z,2.1
2023-05-12T08:25:02.888Z,2.1
2023-05-12T08:31:26.033Z,0.6
2023-05-12T08:37:46.086Z,0.6
2023-05-12T08:44:08.913Z,0.7
2023-05-12T08:50:28.963Z,0.7
2023-05-12T09:20:34.097Z,26.9
2023-05-12T09:26:53.950Z,26.9
2023-05-12T09:33:16.975Z,1.7
2023-05-12T09:39:37.084Z,1.7
2023-05-12T09:45:59.927Z,0.9
2023-05-12T09:52:19.937Z,0.9
2023-05-12T09:58:42.977Z,1.1
2023-05-12T10:05:03.085Z,1.1
2023-05-12T10:11:25.939Z,2.1
2023-05-12T10:17:46.139Z,2.1
2023-05-12T10:24:08.971Z,1.6
2023-05-12T10:30:28.907Z,1.6
2023-05-12T10:36:52.015Z,1.1
2023-05-12T10:43:13.128Z,1.1
2023-05-12T10:49:37.183Z,0.6
2023-05-12T10:55:57.352Z,0.6
2023-05-12T11:02:20.926Z,1.8
2023-05-12T11:08:40.415Z,1.8
2023-05-12T11:15:03.031Z,1.5
2023-05-12T11:21:22.937Z,1.5
2023-05-12T11:27:46.194Z,3.8
2023-05-12T11:34:11.768Z,3.8
2023-05-12T11:40:28.977Z,1.1
2023-05-12T11:46:48.894Z,1.1
2023-05-12T11:53:12.022Z,13.1
2023-05-12T11:59:31.953Z,13.1
2023-05-12T12:05:54.938Z,1.5
2023-05-12T12:12:15.033Z,1.5
2023-05-12T12:18:37.973Z,0.9
2023-05-12T12:24:57.948Z,0.9
2023-05-12T12:31:21.055Z,1
2023-05-12T12:37:40.903Z,1
2023-05-12T12:44:03.960Z,3.1
2023-05-12T12:50:25.098Z,3.1
2023-05-12T12:56:46.945Z,23
2023-05-12T13:03:06.974Z,23
2023-05-12T13:09:29.980Z,3.2
2023-05-12T13:15:49.902Z,3.2
2023-05-12T13:22:12.960Z,1.2
2023-05-12T13:28:32.934Z,1.2
2023-05-12T13:34:57.167Z,0.8
2023-05-12T13:41:17.198Z,0.8
2023-05-12T13:47:40.049Z,1.3
2023-05-12T13:54:00.750Z,1.3
2023-05-12T14:00:24.920Z,2.5
2023-05-12T14:06:44.955Z,2.5
2023-05-12T14:13:08.639Z,1.1
2023-05-12T14:19:27.893Z,1.1
2023-05-12T14:25:51.071Z,1.3
2023-05-12T14:32:10.924Z,1.3
2023-05-12T14:38:33.939Z,1.4
2023-05-12T15:02:59.634Z,4.3
2023-05-12T15:09:19.911Z,4.3
2023-05-12T15:15:42.963Z,4.3
2023-05-12T15:22:02.917Z,4.3
2023-05-12T15:28:25.972Z,1
2023-05-12T15:34:45.906Z,1
2023-05-12T15:41:09.015Z,4.7
2023-05-12T15:47:29.018Z,4.7
2023-05-12T15:53:51.914Z,1
2023-05-12T16:00:11.963Z,1
2023-05-12T16:06:34.926Z,1.2
2023-05-12T16:12:54.909Z,1.2
2023-05-12T16:19:18.163Z,0.7
2023-05-12T16:25:37.970Z,0.7
2023-05-12T16:32:01.165Z,0.4
2023-05-12T16:38:21.127Z,0.4
2023-05-12T16:44:43.934Z,1
2023-05-12T16:51:04.116Z,1
2023-05-12T16:57:27.239Z,2.3
2023-05-12T17:03:47.035Z,2.3
2023-05-12T17:10:10.004Z,1.3
2023-05-12T17:16:30.229Z,1.3
2023-05-12T17:22:53.001Z,1.7
2023-05-12T17:29:12.908Z,1.7
2023-05-12T17:35:36.097Z,2.4
2023-05-12T17:41:55.912Z,2.4
2023-05-12T17:48:18.962Z,0.8
2023-05-12T17:54:39.179Z,0.8
2023-05-12T18:01:01.985Z,1.6
2023-05-12T18:07:21.933Z,1.6
2023-05-12T18:13:45.032Z,1.6
2023-05-12T18:20:04.895Z,1.6
2023-05-12T18:26:28.046Z,2.5
2023-05-12T18:32:48.004Z,2.5
2023-05-12T18:39:10.916Z,2.7
2023-05-12T18:45:31.032Z,2.7
2023-05-12T18:51:53.992Z,1.6
2023-05-12T18:58:13.926Z,1.6
2023-05-12T19:04:36.950Z,4.7
2023-05-12T19:10:56.946Z,4.7
2023-05-12T19:17:20.145Z,2.4
2023-05-12T19:23:39.911Z,2.4
2023-05-12T19:30:02.941Z,1.7
2023-05-12T19:36:22.979Z,1.7
2023-05-12T19:42:46.192Z,1.3
2023-05-12T19:49:06.188Z,1.3
2023-05-12T19:55:28.976Z,3
2023-05-12T20:12:01.569Z,2.6
2023-05-12T20:18:24.474Z,6.1
2023-05-12T20:24:43.880Z,6.1
2023-05-12T20:31:07.087Z,6.1
2023-05-12T20:37:27.371Z,6.1
2023-05-12T20:43:49.984Z,6.3
2023-05-12T20:50:09.961Z,6.3
2023-05-12T20:56:32.903Z,1.5
2023-05-12T21:02:52.960Z,1.5
2023-05-12T21:09:16.973Z,2.4
2023-05-12T21:15:37.004Z,2.4
2023-05-12T21:22:00.112Z,2.5
2023-05-12T21:28:20.005Z,2.5
2023-05-12T21:34:42.966Z,3.5
2023-05-12T21:41:02.987Z,3.5
2023-05-12T21:47:26.161Z,4
2023-05-12T21:53:45.950Z,4
2023-05-12T22:00:08.916Z,1.2
2023-05-12T22:23:06.979Z,6.4
2023-05-12T22:29:26.942Z,6.4
2023-05-12T22:35:50.009Z,6.4
2023-05-12T22:42:09.913Z,6.4
2023-05-12T22:48:36.171Z,6.2
2023-05-12T22:54:52.934Z,6.2
2023-05-12T23:01:16.106Z,4
2023-05-12T23:07:35.945Z,4
2023-05-12T23:13:58.959Z,7.7
2023-05-12T23:20:19.071Z,7.7
2023-05-12T23:26:41.977Z,11.6
2023-05-12T23:33:02.078Z,11.6
2023-05-12T23:39:25.010Z,4.3
2023-05-12T23:45:45.063Z,4.3
2023-05-12T23:52:07.942Z,6.6
2023-05-12T23:58:27.967Z,6.6
